Time;durP1;ratioP1;P1;durP2;ratioP2;P2;SDS_P1;SDS_P2;PMS_P1;PMS_P2;Temp;Humidity;BMP_temperature;BMP_pressure;BME280_temperature;BME280_humidity;BME280_pressure;Samples;Min_cycle;Max_cycle;Signal;HPM_P1;HPM_P2
2022/09/26 00:01:27;;;;;;;14.33;12.90;;;15.60;1.00;;;;;;4987523;28;20460;-54
2022/09/26 00:03:56;;;;;;;14.30;12.20;;;15.60;1.00;;;;;;4988182;28;20464;-55
2022/09/26 00:06:22;;;;;;;14.67;12.67;;;15.70;1.00;;;;;;4987969;28;20541;-55
2022/09/26 00:08:49;;;;;;;14.13;12.63;;;15.60;1.00;;;;;;4988005;28;20536;-55
2022/09/26 00:11:21;;;;;;;13.50;12.13;;;15.60;1.00;;;;;;4988480;28;20444;-53
2022/09/26 00:13:54;;;;;;;14.33;12.37;;;15.60;1.00;;;;;;4989286;28;20464;-56
2022/09/26 00:16:20;;;;;;;16.70;13.63;;;15.40;1.00;;;;;;4988896;28;20441;-55
2022/09/26 00:18:52;;;;;;;13.90;12.40;;;15.50;1.00;;;;;;4988147;28;20453;-52
2022/09/26 00:21:19;;;;;;;14.60;13.20;;;15.50;1.00;;;;;;4983264;28;20449;-54
2022/09/26 00:23:45;;;;;;;15.47;12.43;;;15.50;1.00;;;;;;4984470;28;20470;-54
2022/09/26 00:26:12;;;;;;;14.63;12.47;;;15.50;1.00;;;;;;4990742;28;20580;-52
2022/09/26 00:28:39;;;;;;;15.97;12.93;;;15.50;1.00;;;;;;4990177;28;20449;-54
2022/09/26 00:31:07;;;;;;;14.90;13.30;;;15.50;1.00;;;;;;4983031;28;20540;-54
2022/09/26 00:33:33;;;;;;;15.43;13.43;;;15.50;1.00;;;;;;4980370;28;20476;-53
2022/09/26 00:35:58;;;;;;;16.27;13.60;;;15.70;1.00;;;;;;4984637;28;20449;-54
2022/09/26 00:38:24;;;;;;;12.93;11.60;;;15.60;1.00;;;;;;4989206;28;20190;-53
2022/09/26 00:40:50;;;;;;;14.80;12.70;;;15.60;1.00;;;;;;4984077;28;20249;-53
2022/09/26 00:43:35;;;;;;;16.50;12.53;;;15.70;1.00;;;;;;4986821;28;20793;-53
2022/09/26 00:46:04;;;;;;;14.57;11.43;;;15.70;1.00;;;;;;4987219;28;20568;-54
2022/09/26 00:48:30;;;;;;;16.07;12.37;;;15.80;1.00;;;;;;4984376;28;20444;-54
2022/09/26 00:50:58;;;;;;;16.03;14.20;;;15.80;1.00;;;;;;4985028;28;20556;-54
2022/09/26 00:53:30;;;;;;;18.47;14.63;;;15.80;1.00;;;;;;4983915;28;20449;-55
2022/09/26 00:56:05;;;;;;;16.97;13.43;;;15.80;1.00;;;;;;4987575;28;20452;-56
2022/09/26 00:58:51;;;;;;;15.13;12.40;;;15.70;1.00;;;;;;4986280;28;20464;-54
2022/09/26 01:01:18;;;;;;;15.93;12.67;;;15.70;1.00;;;;;;4986718;28;20427;-55
2022/09/26 01:03:46;;;;;;;14.07;12.67;;;15.70;1.00;;;;;;4988795;28;21025;-54
2022/09/26 01:06:14;;;;;;;13.70;12.30;;;15.90;1.00;;;;;;4987065;28;20539;-54
2022/09/26 01:08:45;;;;;;;16.70;13.60;;;15.80;1.00;;;;;;4988715;28;20804;-53
2022/09/26 01:11:14;;;;;;;14.13;12.27;;;15.80;1.00;;;;;;4980754;28;21420;-55
2022/09/26 01:13:40;;;;;;;15.53;13.70;;;15.70;1.00;;;;;;4987966;28;20448;-55
2022/09/26 01:16:06;;;;;;;18.00;14.17;;;15.70;1.00;;;;;;4990985;28;20457;-56
2022/09/26 01:18:32;;;;;;;15.03;12.93;;;15.60;1.00;;;;;;4994665;28;20416;-55
2022/09/26 01:21:22;;;;;;;16.00;13.50;;;15.60;1.00;;;;;;4992619;28;20198;-53
2022/09/26 01:24:07;;;;;;;18.23;14.47;;;15.60;1.00;;;;;;4990060;28;20469;-53
2022/09/26 01:27:11;;;;;;;17.80;13.90;;;15.50;1.00;;;;;;4989450;28;20419;-55
2022/09/26 01:30:11;;;;;;;18.03;13.83;;;15.50;1.00;;;;;;4984933;28;20413;-55
2022/09/26 01:33:22;;;;;;;19.53;14.40;;;15.50;1.00;;;;;;4988686;28;20444;-55
2022/09/26 01:36:15;;;;;;;20.73;15.50;;;15.50;1.00;;;;;;4955529;28;20496;-56
2022/09/26 01:38:55;;;;;;;19.93;15.70;;;15.50;1.00;;;;;;4996675;28;20445;-55
2022/09/26 01:41:42;;;;;;;18.90;14.47;;;15.20;1.00;;;;;;4987224;28;20785;-55
2022/09/26 01:44:27;;;;;;;20.80;15.90;;;15.20;1.00;;;;;;4990680;28;20562;-56
2022/09/26 01:47:01;;;;;;;20.90;15.23;;;15.20;1.00;;;;;;4992029;28;20445;-56
2022/09/26 01:49:39;;;;;;;21.37;17.07;;;14.90;1.00;;;;;;4993134;28;20452;-55
2022/09/26 01:52:04;;;;;;;21.03;15.53;;;14.80;1.00;;;;;;4992197;28;20839;-52
2022/09/26 01:54:56;;;;;;;23.00;16.43;;;14.70;1.00;;;;;;4988537;28;20586;-56
2022/09/26 01:57:28;;;;;;;25.13;17.97;;;14.80;1.00;;;;;;4962550;28;20202;-54
2022/09/26 01:59:59;;;;;;;23.47;16.53;;;14.70;1.00;;;;;;4989631;28;20904;-54
2022/09/26 02:02:33;;;;;;;22.87;16.60;;;14.70;1.00;;;;;;4988502;28;20751;-55
2022/09/26 02:05:05;;;;;;;24.63;17.37;;;14.70;1.00;;;;;;4989081;28;20431;-53
2022/09/26 02:07:59;;;;;;;27.27;18.90;;;14.70;1.00;;;;;;4990194;28;20444;-57
2022/09/26 02:10:35;;;;;;;22.50;16.70;;;14.70;1.00;;;;;;4983301;28;20457;-54
2022/09/26 02:13:08;;;;;;;23.90;17.07;;;14.60;1.00;;;;;;4989841;28;20528;-53
2022/09/26 02:15:36;;;;;;;18.70;13.97;;;14.60;1.00;;;;;;4987915;28;20420;-55
2022/09/26 02:18:20;;;;;;;16.90;13.73;;;14.70;1.00;;;;;;4991378;28;20903;-56
2022/09/26 02:20:56;;;;;;;18.27;14.00;;;14.60;1.00;;;;;;4990085;28;20416;-56
2022/09/26 02:23:22;;;;;;;15.43;11.83;;;14.40;1.00;;;;;;4990198;28;20843;-55
2022/09/26 02:25:47;;;;;;;16.83;13.63;;;14.30;1.00;;;;;;4988911;28;20453;-56
2022/09/26 02:28:14;;;;;;;16.90;12.67;;;14.40;1.00;;;;;;4987493;28;20521;-54
2022/09/26 02:30:44;;;;;;;13.73;11.13;;;14.40;1.00;;;;;;4989825;28;20552;-53
2022/09/26 02:33:10;;;;;;;16.80;12.13;;;14.10;1.00;;;;;;4991591;28;20452;-54
2022/09/26 02:35:54;;;;;;;13.83;11.60;;;14.10;1.00;;;;;;4991389;28;20449;-53
2022/09/26 02:38:21;;;;;;;12.13;10.13;;;14.10;1.00;;;;;;4991543;28;20961;-54
2022/09/26 02:40:55;;;;;;;10.50;9.30;;;14.10;1.00;;;;;;4991228;28;20464;-55
2022/09/26 02:43:43;;;;;;;11.33;10.13;;;14.00;1.00;;;;;;4978416;28;20485;-54
2022/09/26 02:46:16;;;;;;;9.23;8.33;;;13.90;1.00;;;;;;4996369;28;20480;-55
2022/09/26 02:49:06;;;;;;;11.53;8.90;;;13.80;1.00;;;;;;4991376;28;20927;-55
2022/09/26 02:52:09;;;;;;;11.17;8.43;;;13.80;1.00;;;;;;4990109;28;20902;-56
2022/09/26 02:54:40;;;;;;;13.03;8.43;;;13.70;1.00;;;;;;4984566;28;20452;-55
2022/09/26 02:57:22;;;;;;;10.53;8.93;;;13.60;1.00;;;;;;4989763;28;20501;-52
2022/09/26 03:00:27;;;;;;;13.03;10.30;;;13.60;1.00;;;;;;4989671;28;20453;-58
2022/09/26 03:03:12;;;;;;;13.40;9.67;;;13.50;1.00;;;;;;4987461;28;21005;-54
2022/09/26 03:05:41;;;;;;;13.57;10.37;;;13.50;1.00;;;;;;4986543;28;20482;-55
2022/09/26 03:08:12;;;;;;;13.03;11.10;;;13.60;1.00;;;;;;4974660;28;20427;-53
2022/09/26 03:10:39;;;;;;;11.70;10.47;;;13.50;1.00;;;;;;4986481;28;20445;-54
2022/09/26 03:13:12;;;;;;;14.10;11.40;;;13.60;1.00;;;;;;5004653;28;20447;-54
2022/09/26 03:15:40;;;;;;;14.00;10.27;;;13.70;1.00;;;;;;4988925;28;20460;-55
2022/09/26 03:18:12;;;;;;;12.30;10.30;;;13.80;1.00;;;;;;4990678;28;20448;-54
2022/09/26 03:20:37;;;;;;;16.67;14.00;;;13.80;1.00;;;;;;4989905;28;20464;-54
2022/09/26 03:23:03;;;;;;;13.80;10.90;;;13.80;1.00;;;;;;4991469;28;20469;-53
2022/09/26 03:25:30;;;;;;;15.70;12.43;;;14.00;1.00;;;;;;4972212;28;20186;-53
2022/09/26 03:27:57;;;;;;;11.60;10.10;;;14.00;1.00;;;;;;4990835;28;21017;-55
2022/09/26 03:30:23;;;;;;;13.60;10.70;;;14.00;1.00;;;;;;4990722;28;20480;-52
2022/09/26 03:32:48;;;;;;;12.23;10.00;;;14.00;1.00;;;;;;4988321;28;20492;-55
2022/09/26 03:35:15;;;;;;;11.50;9.87;;;14.10;1.00;;;;;;4992921;28;20182;-54
2022/09/26 03:37:40;;;;;;;11.63;9.30;;;14.10;1.00;;;;;;4989569;28;20194;-55
2022/09/26 03:40:10;;;;;;;13.27;9.63;;;14.10;1.00;;;;;;4987338;28;20445;-54
2022/09/26 03:42:35;;;;;;;11.70;10.07;;;14.20;1.00;;;;;;4986161;28;20198;-55
2022/09/26 03:45:03;;;;;;;11.70;10.07;;;14.10;1.00;;;;;;4987485;28;20452;-55
2022/09/26 03:47:29;;;;;;;9.70;8.70;;;14.10;1.00;;;;;;4989232;28;20194;-56
2022/09/26 03:49:55;;;;;;;11.63;9.60;;;;;;;;;;4990722;28;20590;-54
2022/09/26 03:52:21;;;;;;;12.23;10.33;;;13.90;1.00;;;;;;4990888;28;20453;-52
2022/09/26 03:54:47;;;;;;;11.47;9.57;;;13.90;1.00;;;;;;4989561;28;20444;-55
2022/09/26 03:57:14;;;;;;;12.80;9.80;;;13.90;1.00;;;;;;4988634;28;20285;-55
2022/09/26 03:59:40;;;;;;;11.57;8.73;;;13.90;1.00;;;;;;4988508;28;20469;-54
2022/09/26 04:02:06;;;;;;;13.47;10.57;;;13.80;1.00;;;;;;4988611;28;20428;-55
2022/09/26 04:04:32;;;;;;;12.13;10.47;;;13.90;1.00;;;;;;4988624;28;20452;-55
2022/09/26 04:06:58;;;;;;;12.90;11.60;;;13.90;1.00;;;;;;4995335;28;20189;-55
2022/09/26 04:09:24;;;;;;;11.97;10.50;;;14.00;1.00;;;;;;4990663;28;20190;-53
2022/09/26 04:11:51;;;;;;;15.87;11.00;;;14.00;1.00;;;;;;4989091;28;20449;-55
2022/09/26 04:14:17;;;;;;;14.67;11.23;;;14.00;1.00;;;;;;4988491;28;20452;-54
2022/09/26 04:16:43;;;;;;;12.03;10.10;;;14.10;1.00;;;;;;4997421;28;20457;-55
2022/09/26 04:19:10;;;;;;;16.83;11.57;;;14.00;1.00;;;;;;4989645;28;20468;-54
2022/09/26 04:21:39;;;;;;;14.80;9.33;;;14.00;1.00;;;;;;4991795;28;20519;-54
2022/09/26 04:24:06;;;;;;;13.63;10.27;;;14.00;1.00;;;;;;4986488;28;20994;-54
2022/09/26 04:26:32;;;;;;;11.97;9.30;;;14.00;1.00;;;;;;4987202;28;20955;-55
2022/09/26 04:28:58;;;;;;;14.50;11.00;;;14.00;1.00;;;;;;4988938;28;20515;-54
2022/09/26 04:31:26;;;;;;;15.50;12.23;;;14.00;1.00;;;;;;4988202;28;20205;-52
2022/09/26 04:33:55;;;;;;;15.90;11.90;;;14.00;1.00;;;;;;4988998;28;20465;-54
2022/09/26 04:36:22;;;;;;;13.63;9.87;;;14.10;1.00;;;;;;4995510;28;20441;-54
2022/09/26 04:38:47;;;;;;;14.97;10.37;;;14.10;1.00;;;;;;4992020;28;20456;-56
2022/09/26 04:41:16;;;;;;;12.43;10.97;;;14.10;1.00;;;;;;4989012;28;20449;-54
2022/09/26 04:43:42;;;;;;;15.07;11.00;;;14.10;1.00;;;;;;4989662;28;20242;-52
2022/09/26 04:46:20;;;;;;;12.00;10.77;;;14.10;1.00;;;;;;4989671;28;20453;-55
2022/09/26 04:48:46;;;;;;;14.13;11.00;;;14.10;1.00;;;;;;4972196;28;20449;-55
2022/09/26 04:51:13;;;;;;;14.30;11.50;;;14.20;1.00;;;;;;4990659;28;20975;-54
2022/09/26 04:53:40;;;;;;;11.20;9.77;;;14.20;1.00;;;;;;4988862;28;20217;-53
2022/09/26 04:56:08;;;;;;;12.80;10.17;;;14.20;1.00;;;;;;4989625;28;20423;-53
2022/09/26 04:58:34;;;;;;;15.80;10.80;;;14.20;1.00;;;;;;4988567;28;20803;-53
2022/09/26 05:01:05;;;;;;;13.80;11.23;;;14.30;1.00;;;;;;4996967;28;20841;-55
2022/09/26 05:03:31;;;;;;;15.20;11.20;;;14.30;1.00;;;;;;4994779;28;21420;-53
2022/09/26 05:05:57;;;;;;;13.27;10.80;;;14.40;1.00;;;;;;4998121;28;20538;-55
2022/09/26 05:08:23;;;;;;;12.40;9.83;;;14.50;1.00;;;;;;5007568;28;20448;-55
2022/09/26 05:10:54;;;;;;;10.40;8.37;;;14.40;1.00;;;;;;4989784;28;20442;-52
2022/09/26 05:13:21;;;;;;;13.83;9.03;;;14.30;1.00;;;;;;4993465;28;20963;-54
2022/09/26 05:15:48;;;;;;;9.33;7.70;;;14.40;1.00;;;;;;4988075;28;20517;-56
2022/09/26 05:18:14;;;;;;;10.93;8.93;;;14.40;1.00;;;;;;4988320;28;20523;-56
2022/09/26 05:20:46;;;;;;;10.30;9.17;;;16.30;1.00;;;;;;4988128;28;20449;-54
2022/09/26 05:23:12;;;;;;;13.80;10.33;;;14.40;1.00;;;;;;4977197;28;20552;-53
2022/09/26 05:28:25;;;;;;;11.13;9.40;;;14.40;1.00;;;;;;4989154;28;20205;-53
2022/09/26 05:30:51;;;;;;;11.23;9.80;;;14.40;1.00;;;;;;4989259;28;20441;-54
2022/09/26 05:33:20;;;;;;;10.90;9.40;;;14.40;1.00;;;;;;4988480;28;21033;-52
2022/09/26 05:35:52;;;;;;;9.87;8.87;;;14.40;1.00;;;;;;4989170;28;20662;-54
2022/09/26 05:38:18;;;;;;;10.00;8.97;;;14.40;1.00;;;;;;4988600;28;20478;-55
2022/09/26 05:40:55;;;;;;;18.13;13.57;;;15.90;1.00;;;;;;4988501;28;20453;-53
2022/09/26 05:43:22;;;;;;;15.00;10.53;;;14.50;1.00;;;;;;4988838;28;20464;-55
2022/09/26 05:45:48;;;;;;;12.17;9.20;;;14.50;1.00;;;;;;4989405;28;20424;-54
2022/09/26 05:48:15;;;;;;;10.63;9.53;;;14.60;1.00;;;;;;4989607;28;20444;-53
2022/09/26 05:50:41;;;;;;;10.33;9.27;;;14.60;1.00;;;;;;4988811;28;20183;-54
2022/09/26 05:53:06;;;;;;;12.20;9.80;;;14.60;1.00;;;;;;4989232;28;20503;-53
2022/09/26 05:55:32;;;;;;;12.00;10.40;;;14.60;1.00;;;;;;4989236;28;20519;-54
2022/09/26 05:57:57;;;;;;;12.20;10.60;;;14.50;1.00;;;;;;4989820;28;20284;-54
2022/09/26 06:00:24;;;;;;;11.90;10.13;;;14.50;1.00;;;;;;4989226;28;20218;-54
2022/09/26 06:02:57;;;;;;;11.23;9.30;;;14.50;1.00;;;;;;4992495;28;20198;-53
2022/09/26 06:05:24;;;;;;;9.67;8.30;;;14.50;1.00;;;;;;4993179;28;20415;-55
2022/09/26 06:07:51;;;;;;;14.13;10.13;;;14.50;1.00;;;;;;4992844;28;20821;-54
2022/09/26 06:10:18;;;;;;;11.00;9.90;;;14.50;1.00;;;;;;4993349;28;20449;-55
2022/09/26 06:12:43;;;;;;;11.37;9.17;;;14.50;1.00;;;;;;4993019;28;20803;-56
2022/09/26 06:15:09;;;;;;;11.60;9.77;;;14.60;1.00;;;;;;4993895;28;20415;-54
2022/09/26 06:17:35;;;;;;;10.70;8.70;;;14.60;1.00;;;;;;4992535;28;20186;-54
2022/09/26 06:20:01;;;;;;;11.90;8.70;;;14.60;1.00;;;;;;4994330;28;20257;-54
2022/09/26 06:22:27;;;;;;;11.43;8.53;;;14.60;1.00;;;;;;5013064;28;20182;-52
2022/09/26 06:24:53;;;;;;;10.80;9.03;;;14.60;1.00;;;;;;4993205;28;20458;-55
2022/09/26 06:27:19;;;;;;;11.10;9.87;;;14.70;1.00;;;;;;4992714;28;20557;-55
2022/09/26 06:29:45;;;;;;;13.27;10.27;;;;;;;;;;4992344;28;20553;-56
2022/09/26 06:32:11;;;;;;;11.60;10.37;;;14.70;1.00;;;;;;4990700;28;20448;-55
2022/09/26 06:34:36;;;;;;;9.87;8.30;;;14.70;1.00;;;;;;4992670;28;20444;-55
2022/09/26 06:37:02;;;;;;;9.30;8.10;;;14.80;1.00;;;;;;4992837;28;20190;-56
2022/09/26 06:39:34;;;;;;;11.03;6.10;;;15.60;1.00;;;;;;4992831;28;20190;-55
2022/09/26 06:42:06;;;;;;;9.40;7.03;;;14.70;1.00;;;;;;4992527;28;20190;-54
2022/09/26 06:44:32;;;;;;;10.40;8.60;;;14.80;1.00;;;;;;4992714;28;20477;-55
2022/09/26 06:47:01;;;;;;;8.83;7.97;;;14.80;1.00;;;;;;4992249;28;20493;-54
2022/09/26 06:49:27;;;;;;;10.33;8.07;;;14.80;1.00;;;;;;4992313;28;20449;-52
2022/09/26 06:51:53;;;;;;;7.40;6.60;;;14.80;1.00;;;;;;4992080;28;20866;-54
2022/09/26 06:54:19;;;;;;;7.53;6.83;;;14.80;1.00;;;;;;4992786;28;20443;-56
2022/09/26 06:56:45;;;;;;;6.07;5.47;;;14.80;1.00;;;;;;4974832;28;20465;-56
2022/09/26 06:59:11;;;;;;;10.00;6.53;;;14.80;1.00;;;;;;4991985;28;20536;-55
2022/09/26 07:01:36;;;;;;;7.00;6.23;;;14.80;1.00;;;;;;4992199;28;20190;-55
2022/09/26 07:04:02;;;;;;;10.87;6.30;;;14.80;1.00;;;;;;4992317;28;20514;-54
2022/09/26 07:06:28;;;;;;;7.47;6.00;;;14.80;1.00;;;;;;4992059;28;20178;-53
2022/09/26 07:08:54;;;;;;;7.50;6.80;;;14.80;1.00;;;;;;4992620;28;20422;-52
2022/09/26 07:11:20;;;;;;;7.03;5.90;;;14.70;1.00;;;;;;4992059;28;20202;-54
2022/09/26 07:13:46;;;;;;;8.23;7.00;;;14.60;1.00;;;;;;4997784;28;20506;-55
2022/09/26 07:16:12;;;;;;;9.27;5.73;;;14.60;1.00;;;;;;5009937;28;20208;-55
2022/09/26 07:18:38;;;;;;;7.30;6.27;;;14.70;1.00;;;;;;4991638;28;20189;-54
2022/09/26 07:21:07;;;;;;;7.23;6.20;;;14.80;1.00;;;;;;4992135;28;20416;-55
2022/09/26 07:23:33;;;;;;;6.37;5.77;;;14.80;1.00;;;;;;4991777;28;20439;-55
2022/09/26 07:25:58;;;;;;;6.83;5.83;;;14.80;1.00;;;;;;4991784;28;21189;-55
2022/09/26 07:28:25;;;;;;;6.07;5.47;;;14.80;1.00;;;;;;4991670;28;20453;-55
2022/09/26 07:30:54;;;;;;;7.87;5.40;;;14.90;1.00;;;;;;4991916;28;20186;-54
2022/09/26 07:33:19;;;;;;;6.20;5.30;;;15.00;1.00;;;;;;4991226;28;20434;-53
2022/09/26 07:35:47;;;;;;;7.07;5.10;;;15.20;1.00;;;;;;4992015;28;20453;-56
2022/09/26 07:38:13;;;;;;;6.00;5.27;;;15.40;1.00;;;;;;4999935;28;20226;-55
2022/09/26 07:40:39;;;;;;;6.30;5.70;;;15.60;1.00;;;;;;4991116;28;20486;-55
2022/09/26 07:43:04;;;;;;;7.60;6.30;;;15.80;1.00;;;;;;4991042;28;20448;-54
2022/09/26 07:50:59;;;;;;;7.00;6.03;;;16.10;1.00;;;;;;4989969;28;20957;-54
2022/09/26 07:53:26;;;;;;;9.67;6.30;;;16.30;1.00;;;;;;4991316;28;21088;-55
2022/09/26 07:56:05;;;;;;;6.50;5.90;;;16.20;1.00;;;;;;4992962;28;20420;-55
2022/09/26 07:58:31;;;;;;;6.90;6.20;;;16.20;1.00;;;;;;4991075;28;20445;-54
2022/09/26 08:00:57;;;;;;;5.67;5.10;;;16.10;1.00;;;;;;4993169;28;20415;-55
2022/09/26 08:03:26;;;;;;;7.50;5.03;;;16.00;1.00;;;;;;4990944;28;20853;-55
2022/09/26 08:06:00;;;;;;;6.90;5.60;;;16.10;1.00;;;;;;4991081;28;20186;-55
2022/09/26 08:08:26;;;;;;;6.57;5.57;;;16.20;1.00;;;;;;4990878;28;20917;-54
2022/09/26 08:10:52;;;;;;;9.33;5.80;;;16.40;1.00;;;;;;4990979;28;20515;-54
2022/09/26 08:13:18;;;;;;;6.13;5.50;;;16.50;1.00;;;;;;4991876;28;20858;-54
2022/09/26 08:15:43;;;;;;;7.93;6.00;;;16.60;1.00;;;;;;4996041;28;20191;-54
2022/09/26 08:18:09;;;;;;;7.53;6.73;;;16.60;1.00;;;;;;4992202;28;20427;-54
2022/09/26 08:20:35;;;;;;;8.10;7.30;;;16.50;1.00;;;;;;4991158;28;20181;-56
2022/09/26 08:23:01;;;;;;;8.53;7.10;;;16.30;1.00;;;;;;4991382;28;20186;-54
2022/09/26 08:25:26;;;;;;;7.13;6.43;;;16.40;1.00;;;;;;4990380;28;20425;-55
2022/09/26 08:27:56;;;;;;;7.23;6.50;;;16.40;1.00;;;;;;4990828;28;20652;-55
2022/09/26 08:30:23;;;;;;;7.80;6.13;;;16.60;1.00;;;;;;4990974;28;20186;-55
2022/09/26 08:32:53;;;;;;;8.00;6.33;;;16.80;1.00;;;;;;4990913;28;20846;-55
2022/09/26 08:35:19;;;;;;;7.67;6.60;;;15.90;1.00;;;;;;4991664;28;20505;-52
2022/09/26 08:37:45;;;;;;;7.33;6.37;;;16.90;1.00;;;;;;4998122;28;20424;-53
2022/09/26 08:40:11;;;;;;;8.60;7.33;;;17.20;1.00;;;;;;4990412;28;20464;-54
2022/09/26 08:42:36;;;;;;;9.03;7.00;;;17.40;1.00;;;;;;4991011;28;20184;-55
2022/09/26 08:48:41;;;;;;;8.30;6.67;;;17.60;1.00;;;;;;4990727;28;20731;-54
2022/09/26 08:51:34;;;;;;;8.63;7.03;;;17.60;1.00;;;;;;4990475;28;20416;-56
2022/09/26 08:54:21;;;;;;;7.83;6.90;;;17.60;1.00;;;;;;4995005;28;20440;-54
2022/09/26 08:56:59;;;;;;;9.43;6.63;;;17.80;1.00;;;;;;5009395;28;20411;-55
2022/09/26 08:59:26;;;;;;;6.67;5.93;;;18.20;1.00;;;;;;4990674;28;20419;-54
2022/09/26 09:01:58;;;;;;;9.63;7.03;;;18.50;1.00;;;;;;4990594;28;20416;-55
2022/09/26 09:04:51;;;;;;;8.80;6.90;;;18.80;1.00;;;;;;4990186;28;20495;-53
2022/09/26 09:07:24;;;;;;;10.23;7.30;;;18.80;1.00;;;;;;4990970;28;21156;-54
2022/09/26 09:09:55;;;;;;;7.77;6.33;;;18.80;1.00;;;;;;4990676;28;20414;-55
2022/09/26 09:12:23;;;;;;;6.87;6.17;;;18.90;1.00;;;;;;4997698;28;20837;-54
2022/09/26 09:15:27;;;;;;;7.57;6.77;;;19.00;1.00;;;;;;5009980;28;22150;-54
2022/09/26 09:18:29;;;;;;;7.43;6.30;;;19.00;1.00;;;;;;5010012;28;20740;-55
2022/09/26 09:21:16;;;;;;;6.70;6.10;;;19.20;1.00;;;;;;5009764;28;20467;-54
2022/09/26 09:24:02;;;;;;;12.23;8.10;;;19.30;1.00;;;;;;5009778;28;20443;-55
2022/09/26 09:26:34;;;;;;;6.40;5.80;;;19.40;1.00;;;;;;5010077;28;20869;-53
2022/09/26 09:29:48;;;;;;;7.47;5.97;;;19.50;1.00;;;;;;5003597;28;20788;-56
2022/09/26 09:32:19;;;;;;;6.03;5.13;;;19.60;1.00;;;;;;4961649;28;20799;-55
2022/09/26 09:34:46;;;;;;;5.60;5.10;;;19.70;1.00;;;;;;4990484;28;20479;-54
2022/09/26 09:37:23;;;;;;;6.00;4.57;;;19.80;1.00;;;;;;4992588;28;20442;-53
2022/09/26 09:39:50;;;;;;;6.00;3.60;;;19.70;1.00;;;;;;4994166;28;20471;-55
2022/09/26 09:42:30;;;;;;;4.70;3.70;;;19.50;1.00;;;;;;4994270;28;20950;-55
2022/09/26 09:45:04;;;;;;;4.70;3.17;;;19.30;1.00;;;;;;4993579;28;20464;-55
2022/09/26 09:47:34;;;;;;;4.03;2.57;;;19.20;1.00;;;;;;4994188;28;20511;-55
2022/09/26 09:50:00;;;;;;;2.83;1.73;;;19.00;1.00;;;;;;4976542;28;20531;-55
2022/09/26 09:52:40;;;;;;;2.40;1.67;;;18.80;1.00;;;;;;4976153;28;20515;-55
2022/09/26 09:55:44;;;;;;;3.57;2.20;;;18.80;1.00;;;;;;4993634;28;20428;-53
2022/09/26 09:58:41;;;;;;;3.43;1.80;;;18.80;1.00;;;;;;4944204;28;20499;-55
2022/09/26 10:01:24;;;;;;;8.87;2.27;;;19.30;1.00;;;;;;4993869;28;20469;-56
2022/09/26 10:03:54;;;;;;;4.77;1.90;;;19.30;1.00;;;;;;4993832;28;20443;-54
2022/09/26 10:06:21;;;;;;;2.73;1.60;;;19.20;1.00;;;;;;4993727;28;20524;-54
2022/09/26 10:08:46;;;;;;;2.47;1.47;;;19.00;1.00;;;;;;4976455;28;20894;-56
2022/09/26 10:11:35;;;;;;;3.00;1.33;;;19.10;1.00;;;;;;4993426;28;20410;-55
2022/09/26 10:14:11;;;;;;;3.27;1.80;;;19.30;1.00;;;;;;4993531;28;20253;-53
2022/09/26 10:17:08;;;;;;;2.57;1.50;;;19.60;1.00;;;;;;4993592;28;20427;-55
2022/09/26 10:19:36;;;;;;;3.53;1.73;;;20.00;1.00;;;;;;4992766;28;21001;-55
2022/09/26 10:22:02;;;;;;;2.20;1.60;;;20.20;1.00;;;;;;4993072;28;20435;-55
2022/09/26 10:24:33;;;;;;;2.23;1.30;;;19.90;1.00;;;;;;4993218;28;20469;-55
2022/09/26 10:27:21;;;;;;;2.03;1.30;;;19.40;1.00;;;;;;4992872;28;20420;-53
2022/09/26 10:29:56;;;;;;;2.20;1.80;;;19.40;1.00;;;;;;4993283;28;20437;-56
2022/09/26 10:32:22;;;;;;;3.33;2.10;;;19.50;1.00;;;;;;4993469;28;20417;-57
2022/09/26 10:35:19;;;;;;;4.63;2.07;;;19.50;1.00;;;;;;4993249;28;20434;-53
2022/09/26 10:38:04;;;;;;;3.10;1.43;;;19.70;1.00;;;;;;4984125;28;20209;-54
2022/09/26 10:40:47;;;;;;;2.90;1.53;;;20.00;1.00;;;;;;4992840;28;20415;-55
2022/09/26 10:43:29;;;;;;;3.20;1.90;;;20.40;1.00;;;;;;4992858;28;20523;-53
2022/09/26 10:46:20;;;;;;;3.37;2.17;;;20.90;1.00;;;;;;4992698;28;20421;-55
2022/09/26 10:48:47;;;;;;;7.27;2.23;;;21.00;1.00;;;;;;4991769;28;20473;-55
2022/09/26 10:51:41;;;;;;;2.87;2.10;;;20.80;1.00;;;;;;5004750;28;20789;-54
2022/09/26 10:54:13;;;;;;;5.27;1.70;;;20.80;1.00;;;;;;5012304;28;20463;-55
2022/09/26 10:56:44;;;;;;;3.13;2.10;;;20.80;1.00;;;;;;5012291;28;20440;-55
2022/09/26 10:59:16;;;;;;;5.30;1.57;;;20.50;1.00;;;;;;5012230;28;20946;-55
2022/09/26 11:01:47;;;;;;;4.83;1.73;;;20.40;1.00;;;;;;4999364;28;20528;-55
2022/09/26 11:07:28;;;;;;;3.20;1.63;;;20.40;1.00;;;;;;4992552;28;20854;-52
2022/09/26 11:10:00;;;;;;;3.37;2.17;;;20.70;1.00;;;;;;4992352;28;20423;-51
2022/09/26 11:12:28;;;;;;;3.30;2.20;;;20.60;1.00;;;;;;4992330;28;20450;-55
2022/09/26 11:15:07;;;;;;;2.10;1.90;;;20.50;1.00;;;;;;4992450;28;20520;-54
2022/09/26 11:17:42;;;;;;;2.57;1.70;;;20.30;1.00;;;;;;4976331;28;20784;-55
2022/09/26 11:20:12;;;;;;;4.17;1.70;;;19.90;1.00;;;;;;4992335;28;20502;-55
2022/09/26 11:22:52;;;;;;;2.10;1.33;;;19.60;1.00;;;;;;4992246;28;20455;-55
2022/09/26 11:25:27;;;;;;;3.07;1.30;;;19.30;1.00;;;;;;4992317;28;20475;-55
2022/09/26 11:28:07;;;;;;;1.97;1.13;;;19.00;1.00;;;;;;4999152;28;20432;-53
2022/09/26 11:30:37;;;;;;;2.83;1.63;;;18.80;1.00;;;;;;4995913;28;20441;-54
2022/09/26 11:33:09;;;;;;;5.23;2.30;;;18.80;1.00;;;;;;4991941;28;20445;-54
2022/09/26 11:35:55;;;;;;;3.37;1.57;;;19.20;1.00;;;;;;4992017;28;20430;-55
2022/09/26 11:38:39;;;;;;;3.33;1.70;;;19.60;1.00;;;;;;4992015;28;20444;-54
2022/09/26 11:41:35;;;;;;;2.63;1.20;;;19.90;1.00;;;;;;4992189;28;20422;-54
2022/09/26 11:44:27;;;;;;;2.00;1.37;;;19.90;1.00;;;;;;4996625;28;20458;-57
2022/09/26 11:47:33;;;;;;;1.80;1.30;;;19.90;1.00;;;;;;5011772;28;20875;-53
2022/09/26 11:50:24;;;;;;;3.83;1.40;;;20.00;1.00;;;;;;5011350;28;20445;-54
2022/09/26 11:53:03;;;;;;;1.90;1.33;;;20.30;1.00;;;;;;5011160;28;20490;-57
2022/09/26 11:55:49;;;;;;;4.47;1.37;;;20.40;1.00;;;;;;5011642;28;20432;-54
2022/09/26 11:58:27;;;;;;;1.97;1.00;;;20.10;1.00;;;;;;4995626;28;20437;-56
2022/09/26 12:01:15;;;;;;;1.73;1.00;;;19.90;1.00;;;;;;5003965;28;20754;-57
2022/09/26 12:04:23;;;;;;;2.20;1.53;;;20.10;1.00;;;;;;4993466;28;20555;-55
2022/09/26 12:07:18;;;;;;;1.90;0.80;;;20.10;1.00;;;;;;4996135;28;20812;-56
2022/09/26 12:10:13;;;;;;;1.50;1.23;;;20.40;1.00;;;;;;5001983;28;20446;-55
2022/09/26 12:12:48;;;;;;;4.27;1.63;;;20.70;1.00;;;;;;5008864;28;20415;-53
2022/09/26 12:15:22;;;;;;;3.17;1.60;;;20.90;1.00;;;;;;4991179;28;20440;-55
2022/09/26 12:18:22;;;;;;;3.07;1.37;;;20.90;1.00;;;;;;4991327;28;20441;-53
2022/09/26 12:21:13;;;;;;;2.63;1.10;;;20.80;1.00;;;;;;4990616;28;20931;-55
2022/09/26 12:24:05;;;;;;;1.77;1.23;;;20.70;1.00;;;;;;4995224;28;21045;-56
2022/09/26 12:26:57;;;;;;;0.97;0.87;;;20.30;1.00;;;;;;4991084;28;20472;-55
2022/09/26 12:29:58;;;;;;;2.60;1.47;;;20.30;1.00;;;;;;4990831;28;20500;-54
2022/09/26 12:32:45;;;;;;;1.63;1.20;;;20.10;1.00;;;;;;4892628;29;20467;-55
2022/09/26 12:35:26;;;;;;;1.83;1.00;;;20.10;1.00;;;;;;4989007;28;20506;-54
2022/09/26 12:38:17;;;;;;;1.27;0.87;;;19.90;1.00;;;;;;4990472;28;20407;-54
2022/09/26 12:41:01;;;;;;;2.03;0.93;;;19.80;1.00;;;;;;4991447;28;20985;-55
2022/09/26 12:43:40;;;;;;;1.40;1.10;;;19.90;1.00;;;;;;5009868;28;20464;-55
2022/09/26 12:46:20;;;;;;;2.10;0.90;;;20.20;1.00;;;;;;5010453;28;20921;-54
2022/09/26 12:49:27;;;;;;;3.03;1.20;;;20.20;1.00;;;;;;5008997;28;20489;-55
2022/09/26 12:52:04;;;;;;;1.50;1.00;;;19.90;1.00;;;;;;4974566;28;20445;-55
2022/09/26 12:54:45;;;;;;;0.70;0.70;;;19.90;1.00;;;;;;4990720;28;20437;-55
2022/09/26 12:57:29;;;;;;;1.40;1.13;;;20.10;1.00;;;;;;4990702;28;20441;-54
2022/09/26 13:00:12;;;;;;;1.20;1.10;;;20.20;1.00;;;;;;4990593;28;20767;-54
2022/09/26 13:03:02;;;;;;;0.80;0.70;;;20.40;1.00;;;;;;4990559;28;20827;-54
2022/09/26 13:05:46;;;;;;;3.07;0.90;;;20.70;1.00;;;;;;4972617;28;20424;-55
2022/09/26 13:08:36;;;;;;;3.53;1.10;;;20.90;1.00;;;;;;4990387;28;20812;-55
2022/09/26 13:11:29;;;;;;;0.90;0.80;;;21.10;1.00;;;;;;4983143;28;20416;-55
2022/09/26 13:14:13;;;;;;;2.90;1.00;;;21.10;1.00;;;;;;5016556;28;20451;-53
2022/09/26 13:17:08;;;;;;;2.77;0.90;;;21.00;1.00;;;;;;5016459;28;20451;-53
2022/09/26 13:19:50;;;;;;;3.33;0.90;;;20.80;1.00;;;;;;5008752;28;20407;-54
2022/09/26 13:22:30;;;;;;;1.27;0.63;;;20.80;1.00;;;;;;4997110;28;20408;-53
2022/09/26 13:25:01;;;;;;;1.43;0.63;;;20.60;1.00;;;;;;4996764;28;20987;-55
2022/09/26 13:27:35;;;;;;;2.10;1.10;;;20.50;1.00;;;;;;4997073;28;20415;-54
2022/09/26 13:30:11;;;;;;;4.70;1.00;;;20.60;1.00;;;;;;4997056;28;20555;-54
2022/09/26 13:32:50;;;;;;;3.70;0.87;;;20.80;1.00;;;;;;4996811;28;20422;-56
2022/09/26 13:35:20;;;;;;;1.33;0.70;;;20.80;1.00;;;;;;5001811;28;20506;-55
2022/09/26 13:38:06;;;;;;;1.43;0.70;;;20.70;1.00;;;;;;4997072;28;20437;-54